Gujrat Weather



Gujrat's Current Weather

Temprature 34o haze

haze

Rain: 0 %

Min Temprature34o
Max Temprature34o
Humidity41
Wind Speed2.1 m/h
Sun Rise05:01:28
Sun Set19:14:44
Current Time: 05-Jul-2020 18:37:08
Lat/Lon: 32.57, 74.08




Gujrat's Geo Location



Gujrat's Weather Forecast

Time Overall Temp Min Temp Max Temp Humidity Wind Speed Rain
05-Jul-2020 (Sun)
20:00:00 clear sky 35.380 35.380 36.830 34 1.32 m/h 0 %
23:00:00 clear sky 34.150 34.150 34.190 36 3.56 m/h 0 %
06-Jul-2020 (Mon)
02:00:00 broken clouds 32.440 32.330 32.440 37 0.45 m/h 0 %
05:00:00 scattered clouds 31.300 31.280 31.300 40 1.42 m/h 0 %
08:00:00 clear sky 35.580 35.580 35.580 31 0.69 m/h 0 %
11:00:00 clear sky 40.550 40.550 40.550 22 1.68 m/h 0 %
14:00:00 clear sky 43.690 43.690 43.690 16 0.75 m/h 0 %
17:00:00 clear sky 43.310 43.310 43.310 14 0.56 m/h 0 %
20:00:00 clear sky 40.110 40.110 40.110 17 1.58 m/h 0 %
23:00:00 scattered clouds 38.100 38.100 38.100 20 1.93 m/h 0 %
07-Jul-2020 (Tue)
02:00:00 few clouds 35.880 35.880 35.880 22 2.47 m/h 0 %
05:00:00 clear sky 33.960 33.960 33.960 29 5.09 m/h 0 %
08:00:00 scattered clouds 36.800 36.800 36.800 36 5.95 m/h 0 %
11:00:00 broken clouds 41.980 41.980 41.980 23 3.87 m/h 0 %
14:00:00 overcast clouds 45.230 45.230 45.230 15 1.07 m/h 0 %
17:00:00 overcast clouds 44.820 44.820 44.820 14 0.6 m/h 0 %
20:00:00 broken clouds 42.080 42.080 42.080 16 0.16 m/h 0 %
23:00:00 overcast clouds 40.310 40.310 40.310 22 2.37 m/h 0 %
08-Jul-2020 (Wed)
02:00:00 overcast clouds 37.830 37.830 37.830 32 4.96 m/h 0 %
05:00:00 broken clouds 33.080 33.080 33.080 51 6.69 m/h 0 %
08:00:00 clear sky 35.020 35.020 35.020 47 5.95 m/h 0 %
11:00:00 clear sky 40.630 40.630 40.630 31 3.66 m/h 0 %
14:00:00 clear sky 45.570 45.570 45.570 19 0.53 m/h 0 %
17:00:00 scattered clouds 43.620 43.620 43.620 20 2.48 m/h 0 %
20:00:00 scattered clouds 41.020 41.020 41.020 24 2.69 m/h 0 %
23:00:00 scattered clouds 39.170 39.170 39.170 30 3.74 m/h 0 %
09-Jul-2020 (Thu)
02:00:00 clear sky 35.140 35.140 35.140 45 6.31 m/h 0 %
05:00:00 clear sky 32.500 32.500 32.500 55 6.71 m/h 0 %
08:00:00 clear sky 33.770 33.770 33.770 52 6.31 m/h 0 %
11:00:00 clear sky 39.960 39.960 39.960 33 4.09 m/h 0 %
14:00:00 clear sky 44.330 44.330 44.330 22 1.85 m/h 0 %
17:00:00 clear sky 45.200 45.200 45.200 18 2.56 m/h 0 %
20:00:00 light rain 40.600 40.600 40.600 25 1.95 m/h 51 %
23:00:00 light rain 35.480 35.480 35.480 43 6.92 m/h 57 %
10-Jul-2020 (Fri)
02:00:00 light rain 30.110 30.110 30.110 62 7.09 m/h 162 %
05:00:00 moderate rain 28.600 28.600 28.600 59 6.33 m/h 1,006 %
08:00:00 light rain 30.510 30.510 30.510 49 4.23 m/h 31 %
11:00:00 light rain 35.870 35.870 35.870 34 2.38 m/h 23 %
14:00:00 clear sky 40.520 40.520 40.520 27 0.05 m/h 0 %
17:00:00 clear sky 40.740 40.740 40.740 27 2.2 m/h 0 %

Famous Cities (60)